createdAt,value
2019-03-04T00:00:04.044Z,928.99
2019-03-04T00:00:17.031Z,929.01
2019-03-04T00:00:29.564Z,928.99
2019-03-04T00:00:42.538Z,928.96
2019-03-04T00:00:55.590Z,928.99
2019-03-04T00:01:08.626Z,928.98
2019-03-04T00:01:21.662Z,929
2019-03-04T00:01:34.192Z,928.96
2019-03-04T00:01:47.284Z,928.99
2019-03-04T00:02:00.352Z,928.99
2019-03-04T00:02:13.421Z,928.99
2019-03-04T00:02:26.404Z,929
2019-03-04T00:02:39.399Z,928.99
2019-03-04T00:02:51.903Z,928.95
2019-03-04T00:03:04.932Z,928.95
2019-03-04T00:03:17.944Z,929
2019-03-04T00:03:30.943Z,928.98
2019-03-04T00:03:43.968Z,928.96
2019-03-04T00:03:56.984Z,928.97
2019-03-04T00:04:10.017Z,928.98
2019-03-04T00:04:23.033Z,928.98
2019-03-04T00:04:36.004Z,928.97
2019-03-04T00:04:49.027Z,928.96
2019-03-04T00:05:02.137Z,928.95
2019-03-04T00:05:15.166Z,928.99
2019-03-04T00:05:28.211Z,928.93
2019-03-04T00:05:41.245Z,928.95
2019-03-04T00:05:54.287Z,928.97
2019-03-04T00:06:07.272Z,928.96
2019-03-04T00:06:20.313Z,928.95
2019-03-04T00:06:33.385Z,928.94
2019-03-04T00:06:46.327Z,928.97
2019-03-04T00:06:59.354Z,928.94
2019-03-04T00:07:12.298Z,928.95
2019-03-04T00:07:25.312Z,928.96
2019-03-04T00:07:38.343Z,928.95
2019-03-04T00:07:51.348Z,928.96
2019-03-04T00:08:04.382Z,928.98
2019-03-04T00:08:17.482Z,928.96
2019-03-04T00:08:32.182Z,928.96
2019-03-04T00:08:45.916Z,928.95
2019-03-04T00:08:58.951Z,928.95
2019-03-04T00:09:11.981Z,928.94
2019-03-04T00:09:25.003Z,928.96
2019-03-04T00:09:38.056Z,928.95
2019-03-04T00:09:51.834Z,928.94
2019-03-04T00:10:04.840Z,928.93
2019-03-04T00:10:17.841Z,928.9
2019-03-04T00:10:30.880Z,928.92
2019-03-04T00:10:43.962Z,928.9
2019-03-04T00:10:57.017Z,928.9
2019-03-04T00:11:10.005Z,928.89
2019-03-04T00:11:23.072Z,928.93
2019-03-04T00:11:36.063Z,928.92
2019-03-04T00:11:49.054Z,928.91
2019-03-04T00:12:02.044Z,928.91
2019-03-04T00:12:15.039Z,928.9
2019-03-04T00:12:28.053Z,928.93
2019-03-04T00:12:41.077Z,928.89
2019-03-04T00:12:54.065Z,928.9
2019-03-04T00:13:07.046Z,928.86
2019-03-04T00:13:20.040Z,928.88
2019-03-04T00:13:33.061Z,928.83
2019-03-04T00:13:46.051Z,928.82
2019-03-04T00:13:59.114Z,928.83
2019-03-04T00:14:12.147Z,928.85
2019-03-04T00:14:25.158Z,928.8
2019-03-04T00:14:38.165Z,928.81
2019-03-04T00:14:51.118Z,928.83
2019-03-04T00:15:04.268Z,928.83
2019-03-04T00:15:17.252Z,928.78
2019-03-04T00:15:30.230Z,928.78
2019-03-04T00:15:42.854Z,928.78
2019-03-04T00:15:55.881Z,928.78
2019-03-04T00:16:08.873Z,928.75
2019-03-04T00:16:21.884Z,928.79
2019-03-04T00:16:34.845Z,928.76
2019-03-04T00:16:47.839Z,928.75
2019-03-04T00:17:00.786Z,928.77
2019-03-04T00:17:13.788Z,928.69
2019-03-04T00:17:26.781Z,928.73
2019-03-04T00:17:39.779Z,928.69
2019-03-04T00:17:52.821Z,928.68
2019-03-04T00:18:05.779Z,928.69
2019-03-04T00:18:18.765Z,928.66
2019-03-04T00:18:31.792Z,928.68
2019-03-04T00:18:44.315Z,928.67
2019-03-04T00:18:57.294Z,928.68
2019-03-04T00:19:10.274Z,928.66
2019-03-04T00:19:23.325Z,928.69
2019-03-04T00:19:36.381Z,928.67
2019-03-04T00:19:49.473Z,928.67
2019-03-04T00:20:02.048Z,928.64
2019-03-04T00:20:15.050Z,928.68
2019-03-04T00:20:28.097Z,928.67
2019-03-04T00:20:41.147Z,928.64
2019-03-04T00:20:54.118Z,928.68
2019-03-04T00:21:07.123Z,928.68
2019-03-04T00:21:20.110Z,928.68
2019-03-04T00:21:33.109Z,928.64
2019-03-04T00:21:46.031Z,928.67
2019-03-04T00:21:59.031Z,928.65
2019-03-04T00:22:12.021Z,928.64
2019-03-04T00:22:25.079Z,928.68
2019-03-04T00:22:38.072Z,928.66
2019-03-04T00:22:51.126Z,928.66
2019-03-04T00:23:04.084Z,928.65
2019-03-04T00:23:16.687Z,928.66
2019-03-04T00:23:29.681Z,928.69
2019-03-04T00:23:42.708Z,928.7
2019-03-04T00:23:55.733Z,928.63
2019-03-04T00:24:08.590Z,928.67
2019-03-04T00:24:21.660Z,928.65
2019-03-04T00:24:34.705Z,928.65
2019-03-04T00:24:47.692Z,928.66
2019-03-04T00:25:01.379Z,928.67
2019-03-04T00:25:14.360Z,928.67
2019-03-04T00:25:27.375Z,928.69
2019-03-04T00:25:40.338Z,928.65
2019-03-04T00:25:52.972Z,928.68
2019-03-04T00:26:05.923Z,928.66
2019-03-04T00:26:18.920Z,928.69
2019-03-04T00:26:31.955Z,928.66
2019-03-04T00:26:44.968Z,928.68
2019-03-04T00:26:57.934Z,928.66
2019-03-04T00:27:10.980Z,928.7
2019-03-04T00:27:23.992Z,928.69
2019-03-04T00:27:36.916Z,928.69
2019-03-04T00:27:49.907Z,928.68
2019-03-04T00:28:02.890Z,928.67
2019-03-04T00:28:15.879Z,928.73
2019-03-04T00:28:28.876Z,928.7
2019-03-04T00:28:41.856Z,928.71
2019-03-04T00:28:54.872Z,928.73
2019-03-04T00:29:07.891Z,928.71
2019-03-04T00:29:20.531Z,928.69
2019-03-04T00:29:33.522Z,928.7
2019-03-04T00:29:46.571Z,928.72
2019-03-04T00:29:59.169Z,928.72
2019-03-04T00:30:12.174Z,928.7
2019-03-04T00:30:25.150Z,928.71
2019-03-04T00:30:38.194Z,928.74
2019-03-04T00:30:51.193Z,928.7
2019-03-04T00:31:04.173Z,928.71
2019-03-04T00:31:17.140Z,928.71
2019-03-04T00:31:30.139Z,928.74
2019-03-04T00:31:43.131Z,928.68
2019-03-04T00:31:56.189Z,928.69
2019-03-04T00:32:09.232Z,928.71
2019-03-04T00:32:22.278Z,928.69
2019-03-04T00:32:35.282Z,928.69
2019-03-04T00:32:49.291Z,928.72
2019-03-04T00:33:02.282Z,928.74
2019-03-04T00:33:15.348Z,928.74
2019-03-04T00:33:28.380Z,928.73
2019-03-04T00:33:41.342Z,928.75
2019-03-04T00:33:54.331Z,928.75
2019-03-04T00:34:07.402Z,928.74
2019-03-04T00:34:20.429Z,928.76
2019-03-04T00:34:33.490Z,928.75
2019-03-04T00:34:46.468Z,928.71
2019-03-04T00:34:59.502Z,928.74
2019-03-04T00:35:12.404Z,928.75
2019-03-04T00:35:25.307Z,928.75
2019-03-04T00:35:38.301Z,928.75
2019-03-04T00:35:51.385Z,928.7
2019-03-04T00:36:04.454Z,928.72
2019-03-04T00:36:16.994Z,928.72
2019-03-04T00:36:29.980Z,928.73
2019-03-04T00:36:42.989Z,928.73
2019-03-04T00:36:55.960Z,928.7
2019-03-04T00:37:08.917Z,928.75
2019-03-04T00:37:21.897Z,928.7
2019-03-04T00:37:34.944Z,928.69
2019-03-04T00:37:47.948Z,928.74
2019-03-04T00:38:01.028Z,928.72
2019-03-04T00:38:14.131Z,928.72
2019-03-04T00:38:27.216Z,928.71
2019-03-04T00:38:40.235Z,928.73
2019-03-04T00:38:53.251Z,928.73
2019-03-04T00:39:06.278Z,928.72
2019-03-04T00:39:19.282Z,928.72
2019-03-04T00:39:32.329Z,928.74
2019-03-04T00:39:45.446Z,928.75
2019-03-04T00:39:59.387Z,928.77
2019-03-04T00:40:12.406Z,928.76
2019-03-04T00:40:25.385Z,928.78
2019-03-04T00:40:38.409Z,928.74
2019-03-04T00:40:51.417Z,928.73
2019-03-04T00:41:04.408Z,928.77
2019-03-04T00:41:17.500Z,928.77
2019-03-04T00:41:30.473Z,928.78
2019-03-04T00:41:43.467Z,928.77
2019-03-04T00:41:56.511Z,928.76
2019-03-04T00:42:09.550Z,928.83
2019-03-04T00:42:22.555Z,928.78
2019-03-04T00:42:35.633Z,928.81
2019-03-04T00:42:48.673Z,928.8
2019-03-04T00:43:01.720Z,928.83
2019-03-04T00:43:14.700Z,928.79
2019-03-04T00:43:27.764Z,928.81
2019-03-04T00:43:40.793Z,928.79
2019-03-04T00:43:53.825Z,928.81
2019-03-04T00:44:06.839Z,928.82
2019-03-04T00:44:19.867Z,928.79
2019-03-04T00:44:32.802Z,928.84
2019-03-04T00:44:45.838Z,928.85
2019-03-04T00:44:58.932Z,928.87
2019-03-04T00:45:11.957Z,928.87
2019-03-04T00:45:24.953Z,928.85
2019-03-04T00:45:37.920Z,928.86
2019-03-04T00:45:50.933Z,928.91
2019-03-04T00:46:04.005Z,928.96
2019-03-04T00:46:17.037Z,928.89
2019-03-04T00:46:30.076Z,928.92
2019-03-04T00:46:43.148Z,928.91
2019-03-04T00:46:56.111Z,928.94
2019-03-04T00:47:08.626Z,928.9
2019-03-04T00:47:21.631Z,928.93
2019-03-04T00:47:34.674Z,928.93
2019-03-04T00:47:47.651Z,928.93
2019-03-04T00:48:00.696Z,928.89
2019-03-04T00:48:13.733Z,928.94
2019-03-04T00:48:26.747Z,928.98
2019-03-04T00:48:39.808Z,928.97
2019-03-04T00:48:52.822Z,928.97
2019-03-04T00:49:05.932Z,928.97
2019-03-04T00:49:18.973Z,928.95
2019-03-04T00:49:32.012Z,928.97
2019-03-04T00:49:44.980Z,928.96
2019-03-04T00:49:58.201Z,929
2019-03-04T00:50:11.131Z,929.01
2019-03-04T00:50:24.142Z,928.94
2019-03-04T00:50:37.159Z,928.97
2019-03-04T00:50:50.213Z,928.96
2019-03-04T00:51:03.212Z,928.95
2019-03-04T00:51:16.284Z,928.97
2019-03-04T00:51:29.360Z,928.97
2019-03-04T00:51:42.338Z,928.98
2019-03-04T00:51:55.308Z,928.97
2019-03-04T00:52:08.415Z,928.98
2019-03-04T00:52:21.389Z,928.98
2019-03-04T00:52:34.356Z,928.97
2019-03-04T00:52:47.427Z,929
2019-03-04T00:53:00.487Z,928.98
2019-03-04T00:53:13.496Z,928.97
2019-03-04T00:53:26.441Z,928.97
2019-03-04T00:53:39.501Z,928.98
2019-03-04T00:53:52.530Z,928.98
2019-03-04T00:54:05.529Z,928.96
2019-03-04T00:54:18.586Z,928.98
2019-03-04T00:54:31.606Z,928.97
2019-03-04T00:54:44.637Z,929
2019-03-04T00:54:57.644Z,928.99
2019-03-04T00:55:11.610Z,928.96
2019-03-04T00:55:24.625Z,928.98
2019-03-04T00:55:37.654Z,929
2019-03-04T00:55:50.670Z,929
2019-03-04T00:56:03.692Z,928.97
2019-03-04T00:56:16.728Z,929
2019-03-04T00:56:29.722Z,929
2019-03-04T00:56:42.775Z,929.01
2019-03-04T00:56:55.745Z,929.01
2019-03-04T00:57:08.772Z,929
2019-03-04T00:57:21.748Z,929
2019-03-04T00:57:34.737Z,929.06
2019-03-04T00:57:47.756Z,928.99
2019-03-04T00:58:00.237Z,929.01
2019-03-04T00:58:13.209Z,929.01
2019-03-04T00:58:26.191Z,929.03
2019-03-04T00:58:39.188Z,929.02
2019-03-04T00:58:52.138Z,929.01
2019-03-04T00:59:05.113Z,929.01
2019-03-04T00:59:18.062Z,929
2019-03-04T00:59:32.506Z,929.03
2019-03-04T00:59:45.533Z,929.03
2019-03-04T00:59:58.565Z,929.04
2019-03-04T01:00:11.552Z,929.03
2019-03-04T01:00:24.568Z,929.01
2019-03-04T01:00:37.604Z,929.03
2019-03-04T01:00:50.645Z,929.01
2019-03-04T01:01:03.671Z,929.06
2019-03-04T01:01:16.667Z,929.07
2019-03-04T01:01:29.672Z,929.07
2019-03-04T01:01:42.730Z,929.09
2019-03-04T01:01:55.701Z,929.07
2019-03-04T01:02:08.786Z,929.1
2019-03-04T01:02:21.800Z,929.06
2019-03-04T01:02:34.823Z,929.07
2019-03-04T01:02:47.860Z,929.1
2019-03-04T01:03:00.429Z,929.13
2019-03-04T01:03:13.413Z,929.07
2019-03-04T01:03:26.434Z,929.11
2019-03-04T01:03:39.020Z,929.09
2019-03-04T01:03:52.135Z,929.08
2019-03-04T01:04:05.151Z,929.1
2019-03-04T01:04:18.236Z,929.09
2019-03-04T01:04:31.278Z,929.09
2019-03-04T01:04:44.333Z,929.08
2019-03-04T01:04:57.330Z,929.06
2019-03-04T01:05:10.414Z,929.09
2019-03-04T01:05:23.414Z,929.08
2019-03-04T01:05:36.475Z,929.06
2019-03-04T01:05:49.481Z,929.09
2019-03-04T01:06:04.513Z,929.08
2019-03-04T01:06:17.511Z,929.11
2019-03-04T01:06:30.500Z,929.15
2019-03-04T01:06:43.441Z,929.09
2019-03-04T01:06:56.002Z,929.1
2019-03-04T01:07:09.062Z,929.11
2019-03-04T01:07:21.997Z,929.12
2019-03-04T01:07:35.055Z,929.1
2019-03-04T01:07:48.098Z,929.13
2019-03-04T01:08:01.079Z,929.1
2019-03-04T01:08:14.112Z,929.13
2019-03-04T01:08:27.140Z,929.09
2019-03-04T01:08:40.074Z,929.11
2019-03-04T01:08:53.108Z,929.11
2019-03-04T01:09:06.120Z,929.14
2019-03-04T01:09:19.135Z,929.13
2019-03-04T01:09:32.138Z,929.14
2019-03-04T01:09:45.171Z,929.15
2019-03-04T01:09:58.241Z,929.17
2019-03-04T01:10:11.973Z,929.19
2019-03-04T01:10:24.978Z,929.18
2019-03-04T01:10:37.980Z,929.18
2019-03-04T01:10:51.041Z,929.18
2019-03-04T01:11:04.057Z,929.16
2019-03-04T01:11:17.048Z,929.17
2019-03-04T01:11:30.094Z,929.18
2019-03-04T01:11:43.134Z,929.22
2019-03-04T01:11:56.086Z,929.24
2019-03-04T01:12:09.044Z,929.22
2019-03-04T01:12:21.996Z,929.18
2019-03-04T01:12:34.872Z,929.17
2019-03-04T01:12:47.930Z,929.2
2019-03-04T01:13:00.950Z,929.19
2019-03-04T01:13:13.993Z,929.18
2019-03-04T01:13:27.004Z,929.2
2019-03-04T01:13:39.566Z,929.2
2019-03-04T01:13:52.544Z,929.23
2019-03-04T01:14:05.574Z,929.2
2019-03-04T01:14:18.603Z,929.2
2019-03-04T01:14:31.585Z,929.23
2019-03-04T01:14:44.587Z,929.24
2019-03-04T01:14:57.634Z,929.21
2019-03-04T01:15:10.609Z,929.24
2019-03-04T01:15:23.690Z,929.23
2019-03-04T01:15:36.743Z,929.19
2019-03-04T01:15:49.783Z,929.22
2019-03-04T01:16:02.805Z,929.21
2019-03-04T01:16:15.850Z,929.22
2019-03-04T01:16:28.884Z,929.21
2019-03-04T01:16:41.938Z,929.21
2019-03-04T01:16:54.495Z,929.21
2019-03-04T01:17:07.491Z,929.2
2019-03-04T01:17:20.467Z,929.22
2019-03-04T01:17:33.500Z,929.16
2019-03-04T01:17:46.551Z,929.19
2019-03-04T01:17:59.537Z,929.2
2019-03-04T01:18:12.560Z,929.2
2019-03-04T01:18:25.659Z,929.17
2019-03-04T01:18:38.589Z,929.14
2019-03-04T01:18:51.594Z,929.16
2019-03-04T01:19:04.649Z,929.17
2019-03-04T01:19:17.635Z,929.14
2019-03-04T01:19:30.688Z,929.11
2019-03-04T01:19:43.713Z,929.1
2019-03-04T01:19:56.764Z,929.13
2019-03-04T01:20:09.757Z,929.11
2019-03-04T01:20:22.719Z,929.14
2019-03-04T01:20:35.853Z,929.16
2019-03-04T01:20:48.921Z,929.14
2019-03-04T01:21:01.973Z,929.12
2019-03-04T01:21:15.012Z,929.12
2019-03-04T01:21:28.011Z,929.08
2019-03-04T01:21:41.031Z,929.07
2019-03-04T01:21:54.025Z,929.07
2019-03-04T01:22:07.100Z,929.12
2019-03-04T01:22:20.149Z,929.09
2019-03-04T01:22:33.222Z,929.07
2019-03-04T01:22:46.218Z,929.09
2019-03-04T01:22:59.218Z,929.06
2019-03-04T01:23:11.817Z,929.04
2019-03-04T01:23:24.860Z,929.03
2019-03-04T01:23:37.860Z,929.03
2019-03-04T01:23:52.655Z,929.06
2019-03-04T01:24:05.659Z,928.99
2019-03-04T01:24:18.683Z,929
2019-03-04T01:24:31.700Z,929.01
2019-03-04T01:24:44.637Z,929.01
2019-03-04T01:24:57.677Z,929.03
2019-03-04T01:25:10.745Z,929.02
2019-03-04T01:25:24.323Z,929.02
2019-03-04T01:25:37.356Z,929.03
2019-03-04T01:25:50.400Z,929.01
2019-03-04T01:26:03.428Z,928.96
2019-03-04T01:26:16.485Z,929
2019-03-04T01:26:29.534Z,929.07
2019-03-04T01:26:42.519Z,929.03
2019-03-04T01:26:55.587Z,929
2019-03-04T01:27:08.605Z,928.99
2019-03-04T01:27:21.538Z,929.02
2019-03-04T01:27:34.489Z,929.04
2019-03-04T01:27:47.497Z,929.05
2019-03-04T01:28:00.587Z,929.05
2019-03-04T01:28:13.606Z,929.05
2019-03-04T01:28:26.514Z,929.1
2019-03-04T01:28:39.518Z,929.06
2019-03-04T01:28:52.526Z,929.03
2019-03-04T01:29:05.563Z,929.03
2019-03-04T01:29:18.596Z,929.03
2019-03-04T01:29:31.673Z,929.05
2019-03-04T01:29:44.741Z,929.04
2019-03-04T01:29:57.791Z,929.04
2019-03-04T01:30:10.793Z,929.04
2019-03-04T01:30:23.850Z,929.07
2019-03-04T01:30:36.886Z,929.06
2019-03-04T01:30:49.868Z,929.01
2019-03-04T01:31:02.794Z,929.04
2019-03-04T01:31:15.870Z,929.06
2019-03-04T01:31:28.949Z,929.03
2019-03-04T01:31:43.559Z,929.08
2019-03-04T01:31:56.665Z,929.04
2019-03-04T01:32:09.747Z,929.01
2019-03-04T01:32:22.818Z,929
2019-03-04T01:32:35.829Z,929.05
2019-03-04T01:32:48.841Z,929.02
2019-03-04T01:33:01.879Z,929.02
2019-03-04T01:33:14.962Z,928.98
2019-03-04T01:33:28.009Z,928.98
2019-03-04T01:33:41.056Z,929.02
2019-03-04T01:33:54.117Z,929
2019-03-04T01:34:07.158Z,928.99
2019-03-04T01:34:20.138Z,928.98
2019-03-04T01:34:33.079Z,928.98
2019-03-04T01:34:46.151Z,928.96
2019-03-04T01:34:59.164Z,928.95
2019-03-04T01:35:12.087Z,928.9
2019-03-04T01:35:25.083Z,928.87
2019-03-04T01:35:38.113Z,928.87
2019-03-04T01:35:51.191Z,928.87
2019-03-04T01:36:04.206Z,928.85
2019-03-04T01:36:17.316Z,928.88
2019-03-04T01:36:30.355Z,928.82
2019-03-04T01:36:43.355Z,928.82
2019-03-04T01:36:56.396Z,928.83
2019-03-04T01:37:09.417Z,928.79
2019-03-04T01:37:22.555Z,928.81
2019-03-04T01:37:35.582Z,928.78
2019-03-04T01:37:48.599Z,928.78
2019-03-04T01:38:01.637Z,928.77
2019-03-04T01:38:14.591Z,928.79
2019-03-04T01:38:27.626Z,928.72
2019-03-04T01:38:40.651Z,928.77
2019-03-04T01:38:53.655Z,928.79
2019-03-04T01:39:06.685Z,928.79
2019-03-04T01:39:19.727Z,928.77
2019-03-04T01:39:32.763Z,928.79
2019-03-04T01:39:45.814Z,928.77
2019-03-04T01:39:58.850Z,928.78
2019-03-04T01:40:11.893Z,928.83
2019-03-04T01:40:25.629Z,928.8
2019-03-04T01:40:38.700Z,928.78
2019-03-04T01:40:51.740Z,928.79
2019-03-04T01:41:04.738Z,928.83
2019-03-04T01:41:17.811Z,928.85
2019-03-04T01:41:30.931Z,928.86
2019-03-04T01:41:43.960Z,928.86
2019-03-04T01:41:56.970Z,928.83
2019-03-04T01:42:09.980Z,928.83
2019-03-04T01:42:23.031Z,928.85
2019-03-04T01:42:36.079Z,928.83
2019-03-04T01:42:49.097Z,928.9
2019-03-04T01:43:02.118Z,928.84
2019-03-04T01:43:15.140Z,928.87
2019-03-04T01:43:28.154Z,928.87
2019-03-04T01:43:40.753Z,928.84
2019-03-04T01:43:53.800Z,928.83
2019-03-04T01:44:06.771Z,928.84
2019-03-04T01:44:19.803Z,928.87
2019-03-04T01:44:32.862Z,928.87
2019-03-04T01:44:45.900Z,928.84
2019-03-04T01:44:58.874Z,928.92
2019-03-04T01:45:11.887Z,928.9
2019-03-04T01:45:24.930Z,928.92
2019-03-04T01:45:37.926Z,928.95
2019-03-04T01:45:50.984Z,928.93
2019-03-04T01:46:04.031Z,928.93
2019-03-04T01:46:18.050Z,928.94
2019-03-04T01:46:31.050Z,928.94
2019-03-04T01:46:43.661Z,928.98
2019-03-04T01:46:56.667Z,928.99
2019-03-04T01:47:09.690Z,929.01
2019-03-04T01:47:22.730Z,929.05
2019-03-04T01:47:35.722Z,929.03
2019-03-04T01:47:47.814Z,929.07
2019-03-04T01:48:00.817Z,929.07
2019-03-04T01:48:13.809Z,929.09
2019-03-04T01:48:26.836Z,929.14
2019-03-04T01:48:39.910Z,929.17
2019-03-04T01:48:52.434Z,929.17
2019-03-04T01:49:05.397Z,929.17
2019-03-04T01:49:18.381Z,929.21
2019-03-04T01:49:30.979Z,929.2
2019-03-04T01:49:43.992Z,929.2
2019-03-04T01:49:57.063Z,929.24
2019-03-04T01:50:10.359Z,929.25
2019-03-04T01:50:23.302Z,929.27
2019-03-04T01:50:36.249Z,929.29
2019-03-04T01:50:49.275Z,929.29
2019-03-04T01:51:02.291Z,929.31
2019-03-04T01:51:15.240Z,929.3
2019-03-04T01:51:28.267Z,929.34
2019-03-04T01:51:41.302Z,929.29
2019-03-04T01:51:54.260Z,929.36
2019-03-04T01:52:06.775Z,929.35
2019-03-04T01:52:19.794Z,929.4
2019-03-04T01:52:32.759Z,929.42
2019-03-04T01:52:45.726Z,929.4
2019-03-04T01:52:58.809Z,929.38
2019-03-04T01:53:11.874Z,929.41
2019-03-04T01:53:24.888Z,929.38
2019-03-04T01:53:37.941Z,929.39
2019-03-04T01:53:50.991Z,929.42
2019-03-04T01:54:04.038Z,929.44
2019-03-04T01:54:17.111Z,929.44
2019-03-04T01:54:32.211Z,929.46
2019-03-04T01:54:45.270Z,929.42
2019-03-04T01:54:58.323Z,929.44
2019-03-04T01:55:11.368Z,929.47
2019-03-04T01:55:24.374Z,929.46
2019-03-04T01:55:37.931Z,929.46
2019-03-04T01:55:50.904Z,929.49
2019-03-04T01:56:03.948Z,929.47
2019-03-04T01:56:16.953Z,929.48
2019-03-04T01:56:29.940Z,929.49
2019-03-04T01:56:43.090Z,929.46
2019-03-04T01:56:55.623Z,929.47
2019-03-04T01:57:08.226Z,929.45
2019-03-04T01:57:21.315Z,929.48
2019-03-04T01:57:34.432Z,929.47
2019-03-04T01:57:47.420Z,929.48
2019-03-04T01:58:00.483Z,929.49
2019-03-04T01:58:13.558Z,929.49
2019-03-04T01:58:26.561Z,929.44
2019-03-04T01:58:39.606Z,929.5
2019-03-04T01:58:52.721Z,929.49
2019-03-04T01:59:05.719Z,929.5
2019-03-04T01:59:18.668Z,929.53
2019-03-04T01:59:31.672Z,929.51
2019-03-04T01:59:44.650Z,929.48
2019-03-04T01:59:57.677Z,929.54
2019-03-04T02:00:10.787Z,929.54
2019-03-04T02:00:23.799Z,929.53
2019-03-04T02:00:36.816Z,929.53
2019-03-04T02:00:49.745Z,929.53
2019-03-04T02:01:02.739Z,929.53
2019-03-04T02:01:15.660Z,929.53
2019-03-04T02:01:28.683Z,929.57
2019-03-04T02:01:41.715Z,929.53
2019-03-04T02:01:54.715Z,929.5
2019-03-04T02:02:07.747Z,929.52
2019-03-04T02:02:20.764Z,929.56
2019-03-04T02:02:33.866Z,929.6
2019-03-04T02:02:46.854Z,929.55
2019-03-04T02:02:59.877Z,929.6
2019-03-04T02:03:12.908Z,929.57
2019-03-04T02:03:25.931Z,929.6
2019-03-04T02:03:38.952Z,929.64
2019-03-04T02:03:51.981Z,929.62
2019-03-04T02:04:04.960Z,929.6
2019-03-04T02:04:18.076Z,929.6
2019-03-04T02:04:31.113Z,929.62
2019-03-04T02:04:44.195Z,929.65
2019-03-04T02:04:57.229Z,929.63
2019-03-04T02:05:10.269Z,929.64
2019-03-04T02:05:23.181Z,929.66
2019-03-04T02:05:36.162Z,929.66
2019-03-04T02:05:49.158Z,929.7
2019-03-04T02:06:02.219Z,929.68
2019-03-04T02:06:15.239Z,929.65
2019-03-04T02:06:28.260Z,929.71
2019-03-04T02:06:41.281Z,929.68
2019-03-04T02:06:53.810Z,929.73
2019-03-04T02:07:06.816Z,929.72
2019-03-04T02:07:19.838Z,929.73
2019-03-04T02:07:32.828Z,929.7
2019-03-04T02:07:45.857Z,929.7
2019-03-04T02:07:58.911Z,929.74
2019-03-04T02:08:11.976Z,929.74
2019-03-04T02:08:24.971Z,929.78
2019-03-04T02:08:37.986Z,929.76
2019-03-04T02:08:51.004Z,929.77
2019-03-04T02:09:03.583Z,929.77
2019-03-04T02:09:16.587Z,929.79
2019-03-04T02:09:29.628Z,929.81
2019-03-04T02:09:42.670Z,929.81
2019-03-04T02:09:55.743Z,929.82
2019-03-04T02:10:08.703Z,929.82
2019-03-04T02:10:21.616Z,929.82
2019-03-04T02:10:35.482Z,929.82
2019-03-04T02:10:48.524Z,929.79
2019-03-04T02:11:01.489Z,929.83
2019-03-04T02:11:14.492Z,929.8
2019-03-04T02:11:27.503Z,929.82
2019-03-04T02:11:40.523Z,929.83
2019-03-04T02:11:53.568Z,929.85
2019-03-04T02:12:06.568Z,929.86
2019-03-04T02:12:19.486Z,929.87
2019-03-04T02:12:32.509Z,929.84
2019-03-04T02:12:45.021Z,929.85
2019-03-04T02:12:58.104Z,929.83
2019-03-04T02:13:11.200Z,929.89
2019-03-04T02:13:24.168Z,929.87
2019-03-04T02:13:37.137Z,929.89
2019-03-04T02:13:52.450Z,929.89
2019-03-04T02:14:05.445Z,929.87
2019-03-04T02:14:18.539Z,929.9
2019-03-04T02:14:31.618Z,929.86
2019-03-04T02:14:44.623Z,929.9
2019-03-04T02:14:57.578Z,929.89
2019-03-04T02:15:10.123Z,929.91
2019-03-04T02:15:23.127Z,929.91
2019-03-04T02:15:36.099Z,929.93
2019-03-04T02:15:49.130Z,929.93
2019-03-04T02:16:02.118Z,929.89
2019-03-04T02:16:15.206Z,929.94
2019-03-04T02:16:28.254Z,929.95
2019-03-04T02:16:41.227Z,929.95
2019-03-04T02:16:54.280Z,929.92
2019-03-04T02:17:07.332Z,929.95
2019-03-04T02:17:20.333Z,929.94
2019-03-04T02:17:33.328Z,929.93
2019-03-04T02:17:46.328Z,929.92
2019-03-04T02:17:59.280Z,929.92
2019-03-04T02:18:12.296Z,929.96
2019-03-04T02:18:25.293Z,929.97
2019-03-04T02:18:38.319Z,929.95
2019-03-04T02:18:51.319Z,929.95
2019-03-04T02:19:04.340Z,929.97
2019-03-04T02:19:17.305Z,929.97
2019-03-04T02:19:30.332Z,929.94
2019-03-04T02:19:43.349Z,929.93
2019-03-04T02:19:56.330Z,929.96
2019-03-04T02:20:09.317Z,929.99
2019-03-04T02:20:22.389Z,929.94
2019-03-04T02:20:35.394Z,929.95
2019-03-04T02:20:48.407Z,929.96
2019-03-04T02:21:01.448Z,929.96
2019-03-04T02:21:14.498Z,929.97
2019-03-04T02:21:27.497Z,930
2019-03-04T02:21:40.517Z,930
2019-03-04T02:21:53.552Z,929.98
2019-03-04T02:22:06.623Z,930
2019-03-04T02:22:19.651Z,929.99
2019-03-04T02:22:32.711Z,930.01
2019-03-04T02:22:45.794Z,929.98
2019-03-04T02:22:58.393Z,929.98
2019-03-04T02:23:11.471Z,929.97
2019-03-04T02:23:24.506Z,929.99
2019-03-04T02:23:37.571Z,930.01
2019-03-04T02:23:50.535Z,930.03
2019-03-04T02:24:03.461Z,930.02
2019-03-04T02:24:16.485Z,929.99
2019-03-04T02:24:29.644Z,930
2019-03-04T02:24:42.641Z,930.07
2019-03-04T02:24:55.639Z,929.99
2019-03-04T02:25:08.650Z,930.04
2019-03-04T02:25:21.640Z,930.02
2019-03-04T02:25:34.672Z,930.03
2019-03-04T02:25:48.378Z,930.02
2019-03-04T02:26:01.289Z,930.01
2019-03-04T02:26:14.312Z,930.01
2019-03-04T02:26:27.354Z,930.01
2019-03-04T02:26:40.350Z,929.98
2019-03-04T02:26:53.353Z,930.01
2019-03-04T02:27:06.356Z,930.01
2019-03-04T02:27:19.376Z,930.02
2019-03-04T02:27:32.433Z,930
2019-03-04T02:27:45.484Z,930.02
2019-03-04T02:27:58.491Z,929.97
2019-03-04T02:28:11.490Z,930.03
2019-03-04T02:28:24.560Z,930.02
2019-03-04T02:28:37.532Z,930.01
2019-03-04T02:28:50.562Z,929.99
2019-03-04T02:29:03.536Z,930
2019-03-04T02:29:16.160Z,930
2019-03-04T02:29:29.180Z,930.03
2019-03-04T02:29:42.237Z,929.98
2019-03-04T02:29:55.238Z,929.97
2019-03-04T02:30:07.854Z,929.97
2019-03-04T02:30:20.945Z,929.94
2019-03-04T02:30:34.148Z,929.97
2019-03-04T02:30:47.335Z,929.96
2019-03-04T02:31:00.399Z,929.95
2019-03-04T02:31:13.069Z,929.96
2019-03-04T02:31:26.122Z,929.96
2019-03-04T02:31:39.105Z,929.95
2019-03-04T02:31:52.213Z,929.91
2019-03-04T02:32:05.210Z,929.9
2019-03-04T02:32:18.255Z,929.94
2019-03-04T02:32:31.308Z,929.91
2019-03-04T02:32:44.364Z,929.93
2019-03-04T02:32:57.402Z,929.93
2019-03-04T02:33:10.406Z,929.93
2019-03-04T02:33:23.492Z,929.93
2019-03-04T02:33:36.625Z,929.92
2019-03-04T02:33:49.660Z,929.92
2019-03-04T02:34:02.797Z,929.88
2019-03-04T02:34:15.823Z,929.92
2019-03-04T02:34:28.765Z,929.91
2019-03-04T02:34:41.801Z,929.91
2019-03-04T02:34:54.801Z,929.9
2019-03-04T02:35:07.827Z,929.93
2019-03-04T02:35:20.870Z,929.93
2019-03-04T02:35:33.897Z,929.93
2019-03-04T02:35:46.936Z,929.91
2019-03-04T02:35:59.586Z,929.89
2019-03-04T02:36:12.617Z,929.9
2019-03-04T02:36:25.561Z,929.92
2019-03-04T02:36:38.642Z,929.91
2019-03-04T02:36:51.685Z,929.91
2019-03-04T02:37:04.744Z,929.87
2019-03-04T02:37:17.781Z,929.88
2019-03-04T02:37:30.835Z,929.89
2019-03-04T02:37:43.897Z,929.88
2019-03-04T02:37:56.911Z,929.86
2019-03-04T02:38:09.435Z,929.89
2019-03-04T02:38:22.490Z,929.9
2019-03-04T02:38:35.020Z,929.91
2019-03-04T02:38:47.982Z,929.88
2019-03-04T02:39:00.589Z,929.92
2019-03-04T02:39:13.647Z,929.89
2019-03-04T02:39:26.232Z,929.86
2019-03-04T02:39:39.300Z,929.89
2019-03-04T02:39:52.358Z,929.86
2019-03-04T02:40:05.376Z,929.86
2019-03-04T02:40:18.474Z,929.91
2019-03-04T02:40:31.476Z,929.89
2019-03-04T02:40:46.213Z,929.87
2019-03-04T02:40:58.852Z,929.92
2019-03-04T02:41:11.422Z,929.89
2019-03-04T02:41:24.526Z,929.93
2019-03-04T02:41:37.563Z,929.91
2019-03-04T02:41:50.580Z,929.89
2019-03-04T02:42:03.604Z,929.9
2019-03-04T02:42:16.635Z,929.88
2019-03-04T02:42:29.682Z,929.9
2019-03-04T02:42:42.720Z,929.93
2019-03-04T02:42:55.730Z,929.88
2019-03-04T02:43:08.798Z,929.89
2019-03-04T02:43:21.803Z,929.91